sensor_id;sensor_type;location;lat;lon;timestamp;pressure;altitude;pressure_sealevel;temperature;humidity
12626;BME280;6378;42.684;23.372;2023-11-19T00:00:28;95036.75;;;4.61;100.00
12626;BME280;6378;42.684;23.372;2023-11-19T00:02:54;95041.81;;;4.71;100.00
12626;BME280;6378;42.684;23.372;2023-11-19T00:05:19;95025.94;;;4.58;100.00
12626;BME280;6378;42.684;23.372;2023-11-19T00:07:45;95047.78;;;4.68;100.00
12626;BME280;6378;42.684;23.372;2023-11-19T00:10:15;95042.91;;;4.70;100.00
12626;BME280;6378;42.684;23.372;2023-11-19T00:12:47;95033.31;;;5.09;100.00
12626;BME280;6378;42.684;23.372;2023-11-19T00:15:14;95017.84;;;4.80;100.00
12626;BME280;6378;42.684;23.372;2023-11-19T00:17:40;95031.50;;;4.78;100.00
12626;BME280;6378;42.684;23.372;2023-11-19T00:20:13;95027.56;;;4.76;100.00
12626;BME280;6378;42.684;23.372;2023-11-19T00:22:39;95030.19;;;4.67;100.00
12626;BME280;6378;42.684;23.372;2023-11-19T00:25:05;95045.53;;;4.62;100.00
12626;BME280;6378;42.684;23.372;2023-11-19T00:27:31;95044.91;;;4.65;100.00
12626;BME280;6378;42.684;23.372;2023-11-19T00:29:57;95069.09;;;6.07;100.00
12626;BME280;6378;42.684;23.372;2023-11-19T00:32:23;95062.53;;;6.60;100.00
12626;BME280;6378;42.684;23.372;2023-11-19T00:34:48;95057.06;;;7.03;100.00
12626;BME280;6378;42.684;23.372;2023-11-19T00:37:14;95051.63;;;7.70;100.00
12626;BME280;6378;42.684;23.372;2023-11-19T00:39:41;95036.69;;;6.81;100.00
12626;BME280;6378;42.684;23.372;2023-11-19T00:42:06;95027.41;;;5.72;100.00
12626;BME280;6378;42.684;23.372;2023-11-19T00:44:31;95020.50;;;5.45;100.00
12626;BME280;6378;42.684;23.372;2023-11-19T00:46:57;95050.47;;;5.25;100.00
12626;BME280;6378;42.684;23.372;2023-11-19T00:49:23;95045.84;;;5.08;100.00
12626;BME280;6378;42.684;23.372;2023-11-19T00:51:48;95053.84;;;5.00;100.00
12626;BME280;6378;42.684;23.372;2023-11-19T00:54:14;95042.16;;;4.78;100.00
12626;BME280;6378;42.684;23.372;2023-11-19T00:56:40;95037.44;;;4.75;100.00
12626;BME280;6378;42.684;23.372;2023-11-19T00:59:05;95016.84;;;4.59;100.00
12626;BME280;6378;42.684;23.372;2023-11-19T01:01:30;95052.97;;;4.73;100.00
12626;BME280;6378;42.684;23.372;2023-11-19T01:03:56;95045.72;;;4.65;100.00
12626;BME280;6378;42.684;23.372;2023-11-19T01:06:31;95051.16;;;4.60;100.00
12626;BME280;6378;42.684;23.372;2023-11-19T01:08:56;95055.53;;;4.56;100.00
12626;BME280;6378;42.684;23.372;2023-11-19T01:11:23;95063.09;;;4.54;100.00
12626;BME280;6378;42.684;23.372;2023-11-19T01:13:49;95046.59;;;4.52;100.00
12626;BME280;6378;42.684;23.372;2023-11-19T01:16:15;95041.53;;;4.42;100.00
12626;BME280;6378;42.684;23.372;2023-11-19T01:18:41;95012.78;;;4.30;100.00
12626;BME280;6378;42.684;23.372;2023-11-19T01:21:06;95027.00;;;4.48;100.00
12626;BME280;6378;42.684;23.372;2023-11-19T01:23:32;95021.91;;;4.38;100.00
12626;BME280;6378;42.684;23.372;2023-11-19T01:25:58;95036.81;;;4.39;100.00
12626;BME280;6378;42.684;23.372;2023-11-19T01:28:23;95001.25;;;4.13;100.00
12626;BME280;6378;42.684;23.372;2023-11-19T01:30:52;95048.91;;;4.45;100.00
12626;BME280;6378;42.684;23.372;2023-11-19T01:33:18;95048.19;;;4.31;100.00
12626;BME280;6378;42.684;23.372;2023-11-19T01:35:44;95044.44;;;4.32;100.00
12626;BME280;6378;42.684;23.372;2023-11-19T01:38:10;95024.34;;;4.26;100.00
12626;BME280;6378;42.684;23.372;2023-11-19T01:40:36;95047.59;;;4.34;100.00
12626;BME280;6378;42.684;23.372;2023-11-19T01:43:02;95050.69;;;4.27;100.00
12626;BME280;6378;42.684;23.372;2023-11-19T01:45:28;95071.88;;;4.32;100.00
12626;BME280;6378;42.684;23.372;2023-11-19T01:47:55;95039.88;;;4.24;100.00
12626;BME280;6378;42.684;23.372;2023-11-19T01:50:21;95058.19;;;4.25;100.00
12626;BME280;6378;42.684;23.372;2023-11-19T01:52:47;95044.34;;;4.15;100.00
12626;BME280;6378;42.684;23.372;2023-11-19T01:55:13;95062.81;;;4.33;100.00
12626;BME280;6378;42.684;23.372;2023-11-19T01:57:39;95074.25;;;4.34;100.00
12626;BME280;6378;42.684;23.372;2023-11-19T02:00:07;95071.97;;;4.19;100.00
12626;BME280;6378;42.684;23.372;2023-11-19T02:02:36;95076.84;;;4.25;100.00
12626;BME280;6378;42.684;23.372;2023-11-19T02:05:02;95076.25;;;4.28;100.00
12626;BME280;6378;42.684;23.372;2023-11-19T02:07:28;95062.38;;;4.18;100.00
12626;BME280;6378;42.684;23.372;2023-11-19T02:09:54;95066.50;;;4.24;100.00
12626;BME280;6378;42.684;23.372;2023-11-19T02:12:19;95061.63;;;4.26;100.00
12626;BME280;6378;42.684;23.372;2023-11-19T02:14:45;95055.84;;;4.24;100.00
12626;BME280;6378;42.684;23.372;2023-11-19T02:17:30;95065.28;;;4.30;100.00
12626;BME280;6378;42.684;23.372;2023-11-19T02:20:00;95071.22;;;4.27;100.00
12626;BME280;6378;42.684;23.372;2023-11-19T02:22:25;95041.75;;;4.23;100.00
12626;BME280;6378;42.684;23.372;2023-11-19T02:24:55;95052.28;;;4.28;100.00
12626;BME280;6378;42.684;23.372;2023-11-19T02:30:04;95058.44;;;4.38;100.00
12626;BME280;6378;42.684;23.372;2023-11-19T02:32:31;95063.25;;;4.35;100.00
12626;BME280;6378;42.684;23.372;2023-11-19T02:34:56;95060.59;;;4.35;100.00
12626;BME280;6378;42.684;23.372;2023-11-19T02:37:22;95050.69;;;4.27;100.00
12626;BME280;6378;42.684;23.372;2023-11-19T02:39:48;95041.31;;;4.30;100.00
12626;BME280;6378;42.684;23.372;2023-11-19T02:42:13;95016.81;;;3.97;100.00
12626;BME280;6378;42.684;23.372;2023-11-19T02:44:43;95015.72;;;3.98;100.00
12626;BME280;6378;42.684;23.372;2023-11-19T02:47:09;95045.44;;;4.14;100.00
12626;BME280;6378;42.684;23.372;2023-11-19T02:49:34;95042.91;;;4.09;100.00
12626;BME280;6378;42.684;23.372;2023-11-19T02:52:01;95019.41;;;3.88;100.00
12626;BME280;6378;42.684;23.372;2023-11-19T02:54:26;95034.59;;;3.88;100.00
12626;BME280;6378;42.684;23.372;2023-11-19T02:56:52;95059.47;;;4.06;100.00
12626;BME280;6378;42.684;23.372;2023-11-19T02:59:24;95053.84;;;4.07;100.00
12626;BME280;6378;42.684;23.372;2023-11-19T03:01:54;95055.84;;;4.02;100.00
12626;BME280;6378;42.684;23.372;2023-11-19T03:04:20;95058.59;;;4.10;100.00
12626;BME280;6378;42.684;23.372;2023-11-19T03:06:46;95039.03;;;3.92;100.00
12626;BME280;6378;42.684;23.372;2023-11-19T03:09:12;95056.75;;;3.97;100.00
12626;BME280;6378;42.684;23.372;2023-11-19T03:11:37;95015.88;;;3.71;100.00
12626;BME280;6378;42.684;23.372;2023-11-19T03:14:03;95064.28;;;3.95;100.00
12626;BME280;6378;42.684;23.372;2023-11-19T03:16:29;95066.63;;;3.97;100.00
12626;BME280;6378;42.684;23.372;2023-11-19T03:18:54;95042.16;;;3.72;100.00
12626;BME280;6378;42.684;23.372;2023-11-19T03:21:27;95019.91;;;3.68;100.00
12626;BME280;6378;42.684;23.372;2023-11-19T03:23:53;95067.84;;;3.90;100.00
12626;BME280;6378;42.684;23.372;2023-11-19T03:26:18;95065.34;;;3.94;100.00
12626;BME280;6378;42.684;23.372;2023-11-19T03:28:44;95065.75;;;3.87;100.00
12626;BME280;6378;42.684;23.372;2023-11-19T03:31:09;95068.13;;;3.89;100.00
12626;BME280;6378;42.684;23.372;2023-11-19T03:33:35;95065.53;;;3.98;100.00
12626;BME280;6378;42.684;23.372;2023-11-19T03:36:00;95067.16;;;3.85;100.00
12626;BME280;6378;42.684;23.372;2023-11-19T03:38:25;95066.38;;;3.84;100.00
12626;BME280;6378;42.684;23.372;2023-11-19T03:40:51;95076.00;;;3.94;100.00
12626;BME280;6378;42.684;23.372;2023-11-19T03:43:17;95062.69;;;3.94;100.00
12626;BME280;6378;42.684;23.372;2023-11-19T03:45:44;95076.13;;;3.89;100.00
12626;BME280;6378;42.684;23.372;2023-11-19T03:48:09;94996.53;;;3.43;100.00
12626;BME280;6378;42.684;23.372;2023-11-19T03:50:35;95079.94;;;3.97;100.00
12626;BME280;6378;42.684;23.372;2023-11-19T03:53:00;95086.66;;;3.94;100.00
12626;BME280;6378;42.684;23.372;2023-11-19T03:55:26;95089.78;;;3.96;100.00
12626;BME280;6378;42.684;23.372;2023-11-19T03:57:52;95081.06;;;3.82;100.00
12626;BME280;6378;42.684;23.372;2023-11-19T04:00:17;95089.72;;;3.87;100.00
12626;BME280;6378;42.684;23.372;2023-11-19T04:02:43;95089.06;;;3.82;100.00
12626;BME280;6378;42.684;23.372;2023-11-19T04:05:08;95095.00;;;3.79;100.00
12626;BME280;6378;42.684;23.372;2023-11-19T04:07:35;95100.13;;;3.75;100.00
12626;BME280;6378;42.684;23.372;2023-11-19T04:10:00;95030.25;;;3.34;100.00
12626;BME280;6378;42.684;23.372;2023-11-19T04:12:26;95112.44;;;3.85;100.00
12626;BME280;6378;42.684;23.372;2023-11-19T04:14:51;95115.09;;;3.85;100.00
12626;BME280;6378;42.684;23.372;2023-11-19T04:17:17;95102.69;;;3.80;100.00
12626;BME280;6378;42.684;23.372;2023-11-19T04:19:42;95109.78;;;3.85;100.00
12626;BME280;6378;42.684;23.372;2023-11-19T04:22:08;95097.84;;;3.82;100.00
12626;BME280;6378;42.684;23.372;2023-11-19T04:24:34;95054.44;;;3.60;100.00
12626;BME280;6378;42.684;23.372;2023-11-19T04:27:00;95068.41;;;3.65;100.00
12626;BME280;6378;42.684;23.372;2023-11-19T04:29:25;95103.03;;;3.87;100.00
12626;BME280;6378;42.684;23.372;2023-11-19T04:31:51;95103.09;;;3.96;100.00
12626;BME280;6378;42.684;23.372;2023-11-19T04:34:16;95100.44;;;3.96;100.00
12626;BME280;6378;42.684;23.372;2023-11-19T04:36:42;95121.38;;;3.89;100.00
12626;BME280;6378;42.684;23.372;2023-11-19T04:39:09;95127.38;;;3.95;100.00
12626;BME280;6378;42.684;23.372;2023-11-19T04:41:48;95128.75;;;3.92;100.00
12626;BME280;6378;42.684;23.372;2023-11-19T04:44:14;95124.03;;;3.89;100.00
12626;BME280;6378;42.684;23.372;2023-11-19T04:46:41;95125.63;;;3.90;100.00
12626;BME280;6378;42.684;23.372;2023-11-19T04:49:08;95145.22;;;4.30;100.00
12626;BME280;6378;42.684;23.372;2023-11-19T04:51:43;95112.88;;;4.01;100.00
12626;BME280;6378;42.684;23.372;2023-11-19T04:54:09;95129.19;;;3.85;100.00
12626;BME280;6378;42.684;23.372;2023-11-19T04:56:38;95123.97;;;3.80;100.00
12626;BME280;6378;42.684;23.372;2023-11-19T04:59:04;95134.03;;;3.83;100.00
12626;BME280;6378;42.684;23.372;2023-11-19T05:01:31;95134.91;;;3.79;100.00
12626;BME280;6378;42.684;23.372;2023-11-19T05:03:57;95129.81;;;3.69;100.00
12626;BME280;6378;42.684;23.372;2023-11-19T05:06:29;95139.56;;;3.73;100.00
12626;BME280;6378;42.684;23.372;2023-11-19T05:08:55;95115.94;;;3.58;100.00
12626;BME280;6378;42.684;23.372;2023-11-19T05:11:21;95157.28;;;3.78;100.00
12626;BME280;6378;42.684;23.372;2023-11-19T05:13:47;95162.50;;;3.83;100.00
12626;BME280;6378;42.684;23.372;2023-11-19T05:16:12;95154.25;;;3.84;100.00
12626;BME280;6378;42.684;23.372;2023-11-19T05:18:40;95165.25;;;3.91;100.00
12626;BME280;6378;42.684;23.372;2023-11-19T05:21:05;95139.56;;;3.73;100.00
12626;BME280;6378;42.684;23.372;2023-11-19T05:23:32;95150.16;;;3.87;100.00
12626;BME280;6378;42.684;23.372;2023-11-19T05:25:59;95149.28;;;3.91;100.00
12626;BME280;6378;42.684;23.372;2023-11-19T05:28:25;95158.56;;;3.94;100.00
12626;BME280;6378;42.684;23.372;2023-11-19T05:30:51;95143.47;;;3.89;100.00
12626;BME280;6378;42.684;23.372;2023-11-19T05:33:16;95156.06;;;3.98;100.00
12626;BME280;6378;42.684;23.372;2023-11-19T05:35:42;95162.38;;;4.02;100.00
12626;BME280;6378;42.684;23.372;2023-11-19T05:38:07;95174.13;;;4.01;100.00
12626;BME280;6378;42.684;23.372;2023-11-19T05:40:34;95167.13;;;3.91;100.00
12626;BME280;6378;42.684;23.372;2023-11-19T05:43:00;95170.97;;;3.99;100.00
12626;BME280;6378;42.684;23.372;2023-11-19T05:45:25;95155.78;;;3.99;100.00
12626;BME280;6378;42.684;23.372;2023-11-19T05:47:51;95169.09;;;3.99;100.00
12626;BME280;6378;42.684;23.372;2023-11-19T05:50:18;95170.56;;;4.05;100.00
12626;BME280;6378;42.684;23.372;2023-11-19T05:52:44;95145.81;;;3.91;100.00
12626;BME280;6378;42.684;23.372;2023-11-19T05:55:09;95151.31;;;4.08;100.00
12626;BME280;6378;42.684;23.372;2023-11-19T05:57:38;95170.25;;;4.07;100.00
12626;BME280;6378;42.684;23.372;2023-11-19T06:00:05;95142.41;;;3.90;100.00
12626;BME280;6378;42.684;23.372;2023-11-19T06:02:35;95180.09;;;4.06;100.00
12626;BME280;6378;42.684;23.372;2023-11-19T06:05:04;95150.72;;;3.75;100.00
12626;BME280;6378;42.684;23.372;2023-11-19T06:07:31;95178.88;;;3.90;100.00
12626;BME280;6378;42.684;23.372;2023-11-19T06:09:56;95177.00;;;3.90;100.00
12626;BME280;6378;42.684;23.372;2023-11-19T06:12:22;95190.75;;;4.06;100.00
12626;BME280;6378;42.684;23.372;2023-11-19T06:14:47;95194.03;;;4.03;100.00
12626;BME280;6378;42.684;23.372;2023-11-19T06:17:13;95189.69;;;4.07;100.00
12626;BME280;6378;42.684;23.372;2023-11-19T06:19:38;95182.13;;;4.01;100.00
12626;BME280;6378;42.684;23.372;2023-11-19T06:22:04;95192.44;;;4.02;100.00
12626;BME280;6378;42.684;23.372;2023-11-19T06:24:30;95153.50;;;3.92;100.00
12626;BME280;6378;42.684;23.372;2023-11-19T06:26:55;95182.47;;;4.08;100.00
12626;BME280;6378;42.684;23.372;2023-11-19T06:29:21;95187.50;;;4.09;100.00
12626;BME280;6378;42.684;23.372;2023-11-19T06:31:46;95192.41;;;4.16;100.00
12626;BME280;6378;42.684;23.372;2023-11-19T06:34:14;95186.59;;;4.14;100.00
12626;BME280;6378;42.684;23.372;2023-11-19T06:36:39;95179.59;;;4.18;100.00
12626;BME280;6378;42.684;23.372;2023-11-19T06:39:05;95182.88;;;4.15;100.00
12626;BME280;6378;42.684;23.372;2023-11-19T06:41:31;95178.78;;;3.95;100.00
12626;BME280;6378;42.684;23.372;2023-11-19T06:43:57;95197.78;;;4.02;100.00
12626;BME280;6378;42.684;23.372;2023-11-19T06:46:22;95188.56;;;4.22;100.00
12626;BME280;6378;42.684;23.372;2023-11-19T06:48:47;95154.88;;;4.04;100.00
12626;BME280;6378;42.684;23.372;2023-11-19T06:51:13;95194.84;;;4.26;100.00
12626;BME280;6378;42.684;23.372;2023-11-19T06:53:39;95187.84;;;4.30;100.00
12626;BME280;6378;42.684;23.372;2023-11-19T06:56:23;95182.19;;;4.31;100.00
12626;BME280;6378;42.684;23.372;2023-11-19T06:58:51;95131.25;;;3.88;100.00
12626;BME280;6378;42.684;23.372;2023-11-19T07:01:17;95201.41;;;4.42;100.00
12626;BME280;6378;42.684;23.372;2023-11-19T07:03:45;95202.50;;;4.41;100.00
12626;BME280;6378;42.684;23.372;2023-11-19T07:06:11;95193.81;;;4.49;100.00
12626;BME280;6378;42.684;23.372;2023-11-19T07:08:41;95200.44;;;4.60;100.00
12626;BME280;6378;42.684;23.372;2023-11-19T07:11:06;95191.44;;;4.48;100.00
12626;BME280;6378;42.684;23.372;2023-11-19T07:13:35;95209.91;;;4.66;100.00
12626;BME280;6378;42.684;23.372;2023-11-19T07:16:00;95196.06;;;4.64;100.00
12626;BME280;6378;42.684;23.372;2023-11-19T07:18:26;95210.97;;;4.65;100.00
12626;BME280;6378;42.684;23.372;2023-11-19T07:20:51;95231.97;;;4.58;100.00
12626;BME280;6378;42.684;23.372;2023-11-19T07:23:17;95227.59;;;5.07;100.00
12626;BME280;6378;42.684;23.372;2023-11-19T07:25:43;95219.94;;;4.69;100.00
12626;BME280;6378;42.684;23.372;2023-11-19T07:28:10;95216.63;;;4.64;100.00
12626;BME280;6378;42.684;23.372;2023-11-19T07:30:35;95184.81;;;4.23;100.00
12626;BME280;6378;42.684;23.372;2023-11-19T07:33:01;95249.34;;;4.56;100.00
12626;BME280;6378;42.684;23.372;2023-11-19T07:35:29;95229.75;;;4.38;100.00
12626;BME280;6378;42.684;23.372;2023-11-19T07:37:56;95250.06;;;4.48;100.00
12626;BME280;6378;42.684;23.372;2023-11-19T07:40:23;95055.91;;;2.89;100.00
12626;BME280;6378;42.684;23.372;2023-11-19T07:42:48;95215.53;;;4.07;100.00
12626;BME280;6378;42.684;23.372;2023-11-19T07:45:14;95258.41;;;4.19;100.00
12626;BME280;6378;42.684;23.372;2023-11-19T07:47:39;95251.00;;;4.16;100.00
12626;BME280;6378;42.684;23.372;2023-11-19T07:50:05;95237.34;;;4.31;100.00
12626;BME280;6378;42.684;23.372;2023-11-19T07:52:30;95249.78;;;4.35;100.00
12626;BME280;6378;42.684;23.372;2023-11-19T07:54:56;95103.88;;;3.25;100.00
12626;BME280;6378;42.684;23.372;2023-11-19T07:57:22;95257.22;;;4.25;100.00
12626;BME280;6378;42.684;23.372;2023-11-19T07:59:49;95211.16;;;4.11;100.00
12626;BME280;6378;42.684;23.372;2023-11-19T08:02:14;95216.28;;;4.21;100.00
12626;BME280;6378;42.684;23.372;2023-11-19T08:04:40;95259.22;;;4.77;100.00
12626;BME280;6378;42.684;23.372;2023-11-19T08:07:10;95267.81;;;5.19;100.00
12626;BME280;6378;42.684;23.372;2023-11-19T08:09:36;95260.25;;;5.12;100.00
12626;BME280;6378;42.684;23.372;2023-11-19T08:12:03;95271.72;;;5.13;100.00
12626;BME280;6378;42.684;23.372;2023-11-19T08:14:28;95245.94;;;5.08;100.00
12626;BME280;6378;42.684;23.372;2023-11-19T08:16:54;95267.34;;;4.95;100.00
12626;BME280;6378;42.684;23.372;2023-11-19T08:19:19;95274.31;;;5.04;100.00
12626;BME280;6378;42.684;23.372;2023-11-19T08:21:45;95271.72;;;5.13;100.00
12626;BME280;6378;42.684;23.372;2023-11-19T08:24:10;95278.19;;;5.20;100.00
12626;BME280;6378;42.684;23.372;2023-11-19T08:26:36;95259.81;;;5.19;100.00
12626;BME280;6378;42.684;23.372;2023-11-19T08:29:01;95264.34;;;5.18;100.00
12626;BME280;6378;42.684;23.372;2023-11-19T08:31:27;95247.34;;;5.06;100.00
12626;BME280;6378;42.684;23.372;2023-11-19T08:33:52;95284.63;;;4.97;100.00
12626;BME280;6378;42.684;23.372;2023-11-19T08:36:18;95285.19;;;5.08;100.00
12626;BME280;6378;42.684;23.372;2023-11-19T08:38:43;95285.19;;;5.08;100.00
12626;BME280;6378;42.684;23.372;2023-11-19T08:41:08;95294.34;;;4.93;100.00
12626;BME280;6378;42.684;23.372;2023-11-19T08:43:34;95301.53;;;4.93;100.00
12626;BME280;6378;42.684;23.372;2023-11-19T08:45:59;95286.19;;;4.76;100.00
12626;BME280;6378;42.684;23.372;2023-11-19T08:48:25;95252.19;;;4.59;100.00
12626;BME280;6378;42.684;23.372;2023-11-19T08:50:51;95275.34;;;4.72;100.00
12626;BME280;6378;42.684;23.372;2023-11-19T08:53:16;95278.38;;;4.79;100.00
12626;BME280;6378;42.684;23.372;2023-11-19T08:55:42;95294.88;;;4.82;100.00
12626;BME280;6378;42.684;23.372;2023-11-19T08:58:07;95304.13;;;4.84;100.00
12626;BME280;6378;42.684;23.372;2023-11-19T09:00:33;95273.75;;;4.71;100.00
12626;BME280;6378;42.684;23.372;2023-11-19T09:02:59;95277.97;;;4.86;100.00
12626;BME280;6378;42.684;23.372;2023-11-19T09:05:24;95270.75;;;4.87;100.00
12626;BME280;6378;42.684;23.372;2023-11-19T09:07:50;95270.94;;;5.12;100.00
12626;BME280;6378;42.684;23.372;2023-11-19T09:10:15;95253.75;;;5.27;100.00
12626;BME280;6378;42.684;23.372;2023-11-19T09:12:41;95269.69;;;5.18;100.00
12626;BME280;6378;42.684;23.372;2023-11-19T09:15:07;95268.69;;;5.06;100.00
12626;BME280;6378;42.684;23.372;2023-11-19T09:17:35;95255.47;;;5.01;100.00
12626;BME280;6378;42.684;23.372;2023-11-19T09:20:00;95274.63;;;5.03;100.00
12626;BME280;6378;42.684;23.372;2023-11-19T09:22:26;95271.34;;;5.06;100.00
12626;BME280;6378;42.684;23.372;2023-11-19T09:24:51;95269.19;;;5.08;100.00
12626;BME280;6378;42.684;23.372;2023-11-19T09:27:17;95275.22;;;5.00;100.00
12626;BME280;6378;42.684;23.372;2023-11-19T09:29:42;95286.06;;;4.81;100.00
12626;BME280;6378;42.684;23.372;2023-11-19T09:32:08;95286.50;;;4.97;100.00
12626;BME280;6378;42.684;23.372;2023-11-19T09:34:33;95269.59;;;5.01;100.00
12626;BME280;6378;42.684;23.372;2023-11-19T09:36:59;95261.47;;;5.06;100.00
12626;BME280;6378;42.684;23.372;2023-11-19T09:39:24;95255.72;;;5.13;100.00
12626;BME280;6378;42.684;23.372;2023-11-19T09:41:51;95245.22;;;5.16;100.00
12626;BME280;6378;42.684;23.372;2023-11-19T09:44:17;95247.84;;;5.08;100.00
12626;BME280;6378;42.684;23.372;2023-11-19T09:46:44;95202.75;;;4.75;100.00
12626;BME280;6378;42.684;23.372;2023-11-19T09:49:10;95240.25;;;5.01;100.00
12626;BME280;6378;42.684;23.372;2023-11-19T09:51:36;95233.50;;;5.26;100.00
12626;BME280;6378;42.684;23.372;2023-11-19T09:54:02;95210.59;;;5.34;100.00
12626;BME280;6378;42.684;23.372;2023-11-19T09:56:29;95216.84;;;5.29;100.00
12626;BME280;6378;42.684;23.372;2023-11-19T09:58:55;95182.91;;;5.21;100.00
12626;BME280;6378;42.684;23.372;2023-11-19T10:01:20;95219.69;;;5.72;100.00
12626;BME280;6378;42.684;23.372;2023-11-19T10:03:47;95187.84;;;5.76;100.00
12626;BME280;6378;42.684;23.372;2023-11-19T10:06:14;95201.31;;;5.71;100.00
12626;BME280;6378;42.684;23.372;2023-11-19T10:08:41;95203.84;;;5.76;100.00
12626;BME280;6378;42.684;23.372;2023-11-19T10:11:08;95184.13;;;5.94;100.00
12626;BME280;6378;42.684;23.372;2023-11-19T10:13:37;95210.88;;;6.28;100.00
12626;BME280;6378;42.684;23.372;2023-11-19T10:16:08;95210.09;;;6.28;100.00
12626;BME280;6378;42.684;23.372;2023-11-19T10:18:34;95202.38;;;6.09;100.00
12626;BME280;6378;42.684;23.372;2023-11-19T10:21:06;95211.50;;;6.17;100.00
12626;BME280;6378;42.684;23.372;2023-11-19T10:23:31;95199.72;;;6.09;100.00
12626;BME280;6378;42.684;23.372;2023-11-19T10:26:12;95199.66;;;5.92;100.00
12626;BME280;6378;42.684;23.372;2023-11-19T10:28:41;95206.28;;;6.12;100.00
12626;BME280;6378;42.684;23.372;2023-11-19T10:31:20;95194.19;;;5.97;100.00
12626;BME280;6378;42.684;23.372;2023-11-19T10:33:50;95196.59;;;5.67;100.00
12626;BME280;6378;42.684;23.372;2023-11-19T10:36:16;95187.50;;;5.77;100.00
12626;BME280;6378;42.684;23.372;2023-11-19T10:38:55;95189.56;;;5.80;100.00
12626;BME280;6378;42.684;23.372;2023-11-19T10:41:31;95187.06;;;5.84;100.00
12626;BME280;6378;42.684;23.372;2023-11-19T10:43:58;95197.50;;;6.11;100.00
12626;BME280;6378;42.684;23.372;2023-11-19T10:46:36;95195.78;;;6.15;100.00
12626;BME280;6378;42.684;23.372;2023-11-19T10:49:02;95217.94;;;6.07;100.00
12626;BME280;6378;42.684;23.372;2023-11-19T10:51:29;95208.03;;;6.16;99.41
12626;BME280;6378;42.684;23.372;2023-11-19T10:54:04;95210.44;;;6.35;96.87
12626;BME280;6378;42.684;23.372;2023-11-19T10:56:33;95210.59;;;6.38;95.92
12626;BME280;6378;42.684;23.372;2023-11-19T10:59:00;95210.88;;;6.80;94.30
12626;BME280;6378;42.684;23.372;2023-11-19T11:01:40;95204.56;;;6.93;93.34
12626;BME280;6378;42.684;23.372;2023-11-19T11:04:14;95205.03;;;6.95;89.45
12626;BME280;6378;42.684;23.372;2023-11-19T11:06:43;95206.81;;;6.74;89.92
12626;BME280;6378;42.684;23.372;2023-11-19T11:09:10;95180.22;;;6.60;91.45
12626;BME280;6378;42.684;23.372;2023-11-19T11:11:40;95167.63;;;6.69;89.16
12626;BME280;6378;42.684;23.372;2023-11-19T11:14:11;95182.69;;;6.91;91.64
12626;BME280;6378;42.684;23.372;2023-11-19T11:16:42;95170.13;;;6.83;89.24
12626;BME280;6378;42.684;23.372;2023-11-19T11:19:09;95133.50;;;6.40;90.83
12626;BME280;6378;42.684;23.372;2023-11-19T11:21:36;95156.00;;;6.74;91.27
12626;BME280;6378;42.684;23.372;2023-11-19T11:29:40;95175.66;;;6.78;93.39
12626;BME280;6378;42.684;23.372;2023-11-19T11:35:30;95179.75;;;6.67;90.61
12626;BME280;6378;42.684;23.372;2023-11-19T11:38:03;95157.13;;;6.38;89.27
12626;BME280;6378;42.684;23.372;2023-11-19T11:40:29;95154.91;;;6.40;92.20
12626;BME280;6378;42.684;23.372;2023-11-19T11:42:54;95145.78;;;6.41;89.98
12626;BME280;6378;42.684;23.372;2023-11-19T11:45:35;95146.25;;;6.52;92.21
12626;BME280;6378;42.684;23.372;2023-11-19T11:48:08;95145.94;;;6.62;91.00
12626;BME280;6378;42.684;23.372;2023-11-19T11:50:35;95150.97;;;6.64;95.45
12626;BME280;6378;42.684;23.372;2023-11-19T11:55:36;95127.69;;;6.21;96.92
12626;BME280;6378;42.684;23.372;2023-11-19T11:58:02;95152.38;;;6.35;95.08
12626;BME280;6378;42.684;23.372;2023-11-19T12:02:59;95146.56;;;6.07;97.84
12626;BME280;6378;42.684;23.372;2023-11-19T12:05:25;95160.41;;;6.18;98.20
12626;BME280;6378;42.684;23.372;2023-11-19T12:08:05;95142.78;;;6.26;96.74
12626;BME280;6378;42.684;23.372;2023-11-19T12:10:47;95143.91;;;6.25;98.32
12626;BME280;6378;42.684;23.372;2023-11-19T12:13:14;95146.09;;;6.48;99.30
12626;BME280;6378;42.684;23.372;2023-11-19T12:18:24;95129.72;;;6.50;92.45
12626;BME280;6378;42.684;23.372;2023-11-19T12:20:51;95126.75;;;6.51;92.39
12626;BME280;6378;42.684;23.372;2023-11-19T12:23:17;95119.84;;;6.42;93.64
12626;BME280;6378;42.684;23.372;2023-11-19T12:25:42;95115.75;;;6.53;91.02
12626;BME280;6378;42.684;23.372;2023-11-19T12:28:14;95091.19;;;6.60;88.89
12626;BME280;6378;42.684;23.372;2023-11-19T12:30:45;95113.19;;;6.65;88.83
12626;BME280;6378;42.684;23.372;2023-11-19T12:33:11;95111.47;;;6.69;90.57
12626;BME280;6378;42.684;23.372;2023-11-19T12:35:41;95110.78;;;6.81;90.62
12626;BME280;6378;42.684;23.372;2023-11-19T12:38:07;95105.25;;;6.94;87.56
12626;BME280;6378;42.684;23.372;2023-11-19T12:40:33;95104.03;;;6.83;90.44
12626;BME280;6378;42.684;23.372;2023-11-19T12:42:59;95102.91;;;6.84;89.60
12626;BME280;6378;42.684;23.372;2023-11-19T12:45:36;95084.38;;;6.71;90.49
12626;BME280;6378;42.684;23.372;2023-11-19T12:48:08;95093.03;;;6.76;89.42
12626;BME280;6378;42.684;23.372;2023-11-19T12:50:57;95071.84;;;6.45;90.17
12626;BME280;6378;42.684;23.372;2023-11-19T12:53:24;95087.91;;;6.45;94.48
12626;BME280;6378;42.684;23.372;2023-11-19T12:55:51;95095.44;;;6.52;93.82
12626;BME280;6378;42.684;23.372;2023-11-19T12:58:30;95090.44;;;6.33;94.34
12626;BME280;6378;42.684;23.372;2023-11-19T13:01:00;95076.28;;;6.41;95.65
12626;BME280;6378;42.684;23.372;2023-11-19T13:03:29;95074.69;;;6.49;95.27
12626;BME280;6378;42.684;23.372;2023-11-19T13:06:01;95074.00;;;6.78;100.00
12626;BME280;6378;42.684;23.372;2023-11-19T13:08:28;95078.66;;;6.89;95.85
12626;BME280;6378;42.684;23.372;2023-11-19T13:10:53;95068.69;;;6.61;94.06
12626;BME280;6378;42.684;23.372;2023-11-19T13:13:19;95063.50;;;6.64;96.38
12626;BME280;6378;42.684;23.372;2023-11-19T13:15:45;95067.44;;;6.58;94.61
12626;BME280;6378;42.684;23.372;2023-11-19T13:18:11;95059.91;;;6.51;96.57
12626;BME280;6378;42.684;23.372;2023-11-19T13:20:37;95034.00;;;6.35;94.78